Time;durP1;ratioP1;P1;durP2;ratioP2;P2;SDS_P1;SDS_P2;PMS_P1;PMS_P2;Temp;Humidity;BMP_temperature;BMP_pressure;BME280_temperature;BME280_humidity;BME280_pressure;Samples;Min_cycle;Max_cycle;Signal;HPM_P1;HPM_P2
2023/02/05 00:00:24;;;;;;;4.43;2.63;;;;;;;;;;4347494;32;318024;-86
2023/02/05 00:02:51;;;;;;;3.03;2.53;;;;;;;;;;4357422;32;315426;-87
2023/02/05 00:05:18;;;;;;;4.60;3.23;;;;;;;;;;4347409;32;339430;-86
2023/02/05 00:07:44;;;;;;;5.50;4.70;;;;;;;;;;4358535;32;315438;-87
2023/02/05 00:10:11;;;;;;;6.03;3.67;;;;;;;;;;4352750;32;315740;-87
2023/02/05 00:12:39;;;;;;;4.47;2.97;;;;;;;;;;4358512;32;315860;-87
2023/02/05 00:15:07;;;;;;;4.23;3.40;;;;;;;;;;4358921;32;315722;-88
2023/02/05 00:17:35;;;;;;;5.30;3.30;;;;;;;;;;4345035;32;412337;-87
2023/02/05 00:20:01;;;;;;;3.77;2.80;;;;;;;;;;4358748;32;315603;-87
2023/02/05 00:22:28;;;;;;;3.90;2.90;;;;;;;;;;4349341;32;316119;-87
2023/02/05 00:24:55;;;;;;;6.80;3.97;;;;;;;;;;4358667;32;315568;-87
2023/02/05 00:27:25;;;;;;;5.73;4.10;;;;;;;;;;4347385;32;315724;-86
2023/02/05 00:29:53;;;;;;;4.50;3.67;;;;;;;;;;4357359;32;316005;-87
2023/02/05 00:32:20;;;;;;;5.83;4.00;;;;;;;;;;4348346;32;316525;-87
2023/02/05 00:34:46;;;;;;;5.27;3.73;;;;;;;;;;4358830;32;315617;-87
2023/02/05 00:37:13;;;;;;;7.03;5.37;;;;;;;;;;4349517;32;316182;-87
2023/02/05 00:39:40;;;;;;;11.37;6.03;;;;;;;;;;4359523;32;315876;-87
2023/02/05 00:42:07;;;;;;;11.60;5.97;;;;;;;;;;4349354;32;317493;-87
2023/02/05 00:44:34;;;;;;;9.67;5.30;;;;;;;;;;4358084;32;316509;-87
2023/02/05 00:47:02;;;;;;;12.60;6.00;;;;;;;;;;4357122;32;316020;-87
2023/02/05 00:49:29;;;;;;;8.03;5.73;;;;;;;;;;4347966;32;317354;-88
2023/02/05 00:51:56;;;;;;;5.63;4.43;;;;;;;;;;4357398;32;316059;-87
2023/02/05 00:54:23;;;;;;;6.60;4.40;;;;;;;;;;4347152;32;331217;-88
2023/02/05 00:56:49;;;;;;;8.87;5.27;;;;;;;;;;4358239;32;316337;-87
2023/02/05 00:59:16;;;;;;;8.50;4.93;;;;;;;;;;4348286;32;315529;-87
2023/02/05 01:01:43;;;;;;;7.63;4.90;;;;;;;;;;4356692;32;315486;-87
2023/02/05 01:04:11;;;;;;;9.20;4.87;;;;;;;;;;4346436;32;316027;-87
2023/02/05 01:06:38;;;;;;;6.10;2.77;;;;;;;;;;4356334;32;316275;-87
2023/02/05 01:09:05;;;;;;;6.30;3.77;;;;;;;;;;4356635;32;315702;-87
2023/02/05 01:11:31;;;;;;;4.40;3.17;;;;;;;;;;4348261;32;316289;-87
2023/02/05 01:13:58;;;;;;;4.17;3.37;;;;;;;;;;4357504;32;316454;-87
2023/02/05 01:16:26;;;;;;;4.00;3.13;;;;;;;;;;4346923;32;316124;-87
2023/02/05 01:18:55;;;;;;;3.40;2.70;;;;;;;;;;4357449;32;315515;-87
2023/02/05 01:21:23;;;;;;;5.33;3.10;;;;;;;;;;4346893;32;315525;-87
2023/02/05 01:23:51;;;;;;;4.50;3.60;;;;;;;;;;4357596;32;316193;-87
2023/02/05 01:26:18;;;;;;;6.30;3.80;;;;;;;;;;4346650;32;320909;-87
2023/02/05 01:28:45;;;;;;;3.87;3.47;;;;;;;;;;4357668;32;315518;-87
2023/02/05 01:31:11;;;;;;;4.23;2.87;;;;;;;;;;4348025;32;316320;-87
2023/02/05 01:33:38;;;;;;;3.83;3.33;;;;;;;;;;4357518;32;316379;-87
2023/02/05 01:36:06;;;;;;;4.17;2.83;;;;;;;;;;4356639;32;315569;-87
2023/02/05 01:38:34;;;;;;;4.10;2.80;;;;;;;;;;4345180;32;414622;-88
2023/02/05 01:41:00;;;;;;;7.30;3.60;;;;;;;;;;4357725;32;323597;-87
2023/02/05 01:43:27;;;;;;;5.03;3.50;;;;;;;;;;4347907;32;316047;-88
2023/02/05 01:46:21;;;;;;;5.87;3.47;;;;;;;;;;4357753;32;316508;-87
2023/02/05 01:48:53;;;;;;;4.60;3.00;;;;;;;;;;4344548;32;415233;-88
2023/02/05 01:51:23;;;;;;;3.80;3.13;;;;;;;;;;4347843;32;315511;-87
2023/02/05 01:53:51;;;;;;;7.10;4.40;;;;;;;;;;4357282;32;315398;-87
2023/02/05 01:56:22;;;;;;;5.23;3.60;;;;;;;;;;4346976;32;316406;-87
2023/02/05 01:58:53;;;;;;;5.43;3.40;;;;;;;;;;4356032;32;315480;-87
2023/02/05 02:01:20;;;;;;;5.90;3.17;;;;;;;;;;4346661;32;316435;-87
2023/02/05 02:03:49;;;;;;;5.73;3.10;;;;;;;;;;4355843;32;315324;-87
2023/02/05 02:06:16;;;;;;;5.73;3.37;;;;;;;;;;4347396;32;316520;-88
2023/02/05 02:08:42;;;;;;;4.37;2.77;;;;;;;;;;4357502;32;316567;-87
2023/02/05 02:11:16;;;;;;;5.47;2.93;;;;;;;;;;4347475;32;315476;-88
2023/02/05 02:13:45;;;;;;;13.07;3.40;;;;;;;;;;4357532;32;316159;-88
2023/02/05 02:16:12;;;;;;;4.57;2.97;;;;;;;;;;4347754;32;316692;-87
2023/02/05 02:18:39;;;;;;;11.57;4.10;;;;;;;;;;4357031;32;315410;-87
2023/02/05 02:21:41;;;;;;;7.53;4.63;;;;;;;;;;4360506;32;317545;-87
2023/02/05 02:24:51;;;;;;;9.03;4.97;;;;;;;;;;4346120;32;415435;-86
2023/02/05 02:27:43;;;;;;;5.67;4.30;;;;;;;;;;4333412;32;316270;-87
2023/02/05 02:30:15;;;;;;;12.03;6.53;;;;;;;;;;4350497;32;316673;-87
2023/02/05 02:32:49;;;;;;;10.20;4.30;;;;;;;;;;4360314;32;317126;-87
2023/02/05 02:35:22;;;;;;;9.63;4.90;;;;;;;;;;4348396;32;335758;-87
2023/02/05 02:37:56;;;;;;;6.87;4.00;;;;;;;;;;4359959;32;315573;-87
2023/02/05 02:40:31;;;;;;;6.03;4.13;;;;;;;;;;4349252;32;316365;-87
2023/02/05 02:43:07;;;;;;;3.13;2.83;;;;;;;;;;4360135;32;315433;-87
2023/02/05 02:45:36;;;;;;;5.00;3.17;;;;;;;;;;4338690;32;416537;-87
2023/02/05 02:48:06;;;;;;;3.57;3.00;;;;;;;;;;4356996;32;315530;-87
2023/02/05 02:50:36;;;;;;;6.13;3.70;;;;;;;;;;4345436;32;415545;-86
2023/02/05 02:53:08;;;;;;;5.23;3.10;;;;;;;;;;4357951;32;316321;-87
2023/02/05 02:55:41;;;;;;;4.20;3.17;;;;;;;;;;4330602;32;415231;-86
2023/02/05 02:58:15;;;;;;;5.17;3.13;;;;;;;;;;4331722;32;355492;-86
2023/02/05 03:00:45;;;;;;;4.27;2.77;;;;;;;;;;4343768;32;315627;-86
2023/02/05 03:03:15;;;;;;;4.40;3.87;;;;;;;;;;4334471;32;315408;-86
2023/02/05 03:05:45;;;;;;;5.63;3.70;;;;;;;;;;4343504;32;315374;-87
2023/02/05 03:08:18;;;;;;;5.73;3.30;;;;;;;;;;4332440;32;324169;-87
2023/02/05 03:10:48;;;;;;;3.77;2.93;;;;;;;;;;4344492;32;315414;-87
2023/02/05 03:13:18;;;;;;;5.17;3.10;;;;;;;;;;4334462;32;316481;-87
2023/02/05 03:15:46;;;;;;;7.33;3.40;;;;;;;;;;4343096;32;349481;-86
2023/02/05 03:18:15;;;;;;;3.83;2.50;;;;;;;;;;4333409;32;316565;-86
2023/02/05 03:20:45;;;;;;;4.00;2.90;;;;;;;;;;4344498;32;316327;-87
2023/02/05 03:23:12;;;;;;;5.17;2.97;;;;;;;;;;4331243;32;350329;-86
2023/02/05 03:25:39;;;;;;;5.10;3.10;;;;;;;;;;4344371;32;315916;-86
2023/02/05 03:28:05;;;;;;;5.73;2.63;;;;;;;;;;4344513;32;316516;-87
2023/02/05 03:30:41;;;;;;;2.60;2.30;;;;;;;;;;4335298;32;316406;-87
2023/02/05 03:33:22;;;;;;;3.57;3.10;;;;;;;;;;4332360;32;349395;-86
2023/02/05 03:35:58;;;;;;;5.43;3.40;;;;;;;;;;4344567;32;316317;-87
2023/02/05 03:38:42;;;;;;;5.07;4.07;;;;;;;;;;4333345;32;316266;-87
2023/02/05 03:41:17;;;;;;;6.07;4.00;;;;;;;;;;4335122;32;316406;-86
2023/02/05 03:43:55;;;;;;;10.50;5.27;;;;;;;;;;4345597;32;315535;-87
2023/02/05 03:46:31;;;;;;;10.93;6.20;;;;;;;;;;4337150;32;317205;-86
2023/02/05 03:49:06;;;;;;;16.93;6.03;;;;;;;;;;4344198;32;317423;-86
2023/02/05 03:51:39;;;;;;;15.20;6.57;;;;;;;;;;4329434;32;417333;-86
2023/02/05 03:54:13;;;;;;;13.63;5.33;;;;;;;;;;4342978;32;316392;-87
2023/02/05 03:56:48;;;;;;;11.93;5.00;;;;;;;;;;4331131;32;416381;-87
2023/02/05 03:59:16;;;;;;;5.73;4.40;;;;;;;;;;4332792;32;316727;-87
2023/02/05 04:01:45;;;;;;;12.97;5.37;;;;;;;;;;4344092;32;316379;-87
2023/02/05 04:04:12;;;;;;;3.77;2.73;;;;;;;;;;4333929;32;316400;-87
2023/02/05 04:06:39;;;;;;;5.00;3.37;;;;;;;;;;4343987;32;316344;-87
2023/02/05 04:09:06;;;;;;;4.13;2.73;;;;;;;;;;4340880;32;326696;-86
2023/02/05 04:11:37;;;;;;;4.37;3.50;;;;;;;;;;4335926;32;414966;-86
2023/02/05 04:14:04;;;;;;;7.93;4.67;;;;;;;;;;4343507;32;316608;-87
2023/02/05 04:16:30;;;;;;;5.83;3.77;;;;;;;;;;4333945;32;315988;-86
2023/02/05 04:18:59;;;;;;;6.50;3.83;;;;;;;;;;4342330;32;316467;-86
2023/02/05 04:21:25;;;;;;;4.40;3.30;;;;;;;;;;4333908;32;316120;-86
2023/02/05 04:23:52;;;;;;;3.97;2.93;;;;;;;;;;4342060;32;315514;-86
2023/02/05 04:26:19;;;;;;;3.10;2.60;;;;;;;;;;4332897;32;316309;-87
2023/02/05 04:28:46;;;;;;;4.83;3.07;;;;;;;;;;4343032;32;316388;-86
2023/02/05 04:31:13;;;;;;;8.03;3.13;;;;;;;;;;4333938;32;316458;-86
2023/02/05 04:33:40;;;;;;;5.57;3.33;;;;;;;;;;4343146;32;315233;-86
2023/02/05 04:36:09;;;;;;;3.23;2.93;;;;;;;;;;4343428;32;316529;-86
2023/02/05 04:38:36;;;;;;;3.57;2.73;;;;;;;;;;4329925;32;415209;-86
2023/02/05 04:41:02;;;;;;;9.00;4.73;;;;;;;;;;4342789;32;316428;-86
2023/02/05 04:43:29;;;;;;;5.50;4.17;;;;;;;;;;4333242;32;316298;-86
2023/02/05 04:45:56;;;;;;;5.63;4.37;;;;;;;;;;4342094;32;316416;-86
2023/02/05 04:48:23;;;;;;;9.13;5.27;;;;;;;;;;4333643;32;316422;-86
2023/02/05 04:50:49;;;;;;;5.90;3.97;;;;;;;;;;4343107;32;315600;-86
2023/02/05 04:53:18;;;;;;;5.00;2.77;;;;;;;;;;4333348;32;315585;-86
2023/02/05 04:55:44;;;;;;;4.43;3.20;;;;;;;;;;4342708;32;316788;-86
2023/02/05 04:58:11;;;;;;;4.40;3.30;;;;;;;;;;4332034;32;315328;-87
2023/02/05 05:00:38;;;;;;;5.07;3.70;;;;;;;;;;4341580;32;316266;-86
2023/02/05 05:03:05;;;;;;;9.63;5.73;;;;;;;;;;4342804;32;315438;-86
2023/02/05 05:05:32;;;;;;;7.43;4.47;;;;;;;;;;4333193;32;316194;-87
2023/02/05 05:07:59;;;;;;;4.90;4.00;;;;;;;;;;4342972;32;315427;-86
2023/02/05 05:10:28;;;;;;;6.13;3.00;;;;;;;;;;4331963;32;316320;-86
2023/02/05 05:12:55;;;;;;;3.10;2.80;;;;;;;;;;4342710;32;316580;-86
2023/02/05 05:15:21;;;;;;;9.73;4.00;;;;;;;;;;4333045;32;316379;-87
2023/02/05 05:17:48;;;;;;;4.30;3.47;;;;;;;;;;4341188;32;316595;-86
2023/02/05 05:20:15;;;;;;;6.00;3.63;;;;;;;;;;4331152;32;336166;-86
2023/02/05 05:22:42;;;;;;;6.77;4.43;;;;;;;;;;4342609;32;316419;-87
2023/02/05 05:25:09;;;;;;;4.30;3.30;;;;;;;;;;4333002;32;316155;-86
2023/02/05 05:27:37;;;;;;;7.53;3.40;;;;;;;;;;4342953;32;316419;-86
2023/02/05 05:30:04;;;;;;;6.33;4.43;;;;;;;;;;4342653;32;315310;-86
2023/02/05 05:32:31;;;;;;;2.87;2.40;;;;;;;;;;4332255;32;332959;-86
2023/02/05 05:34:58;;;;;;;5.67;3.50;;;;;;;;;;4342334;32;316371;-87
2023/02/05 05:37:24;;;;;;;8.03;3.17;;;;;;;;;;4332557;32;315592;-87
2023/02/05 05:45:33;;;;;;;5.77;4.23;;;;;;;;;;4287519;33;386825;-86
2023/02/05 05:48:00;;;;;;;5.93;3.13;;;;;;;;;;4344239;32;315392;-86
2023/02/05 05:50:27;;;;;;;5.40;3.67;;;;;;;;;;4346308;32;315999;-86
2023/02/05 05:52:54;;;;;;;16.67;6.50;;;;;;;;;;4356686;32;315334;-86
2023/02/05 05:55:21;;;;;;;6.57;4.70;;;;;;;;;;4346784;32;316626;-86
2023/02/05 05:57:49;;;;;;;7.13;3.97;;;;;;;;;;4356861;32;316351;-86
2023/02/05 06:00:16;;;;;;;4.07;3.03;;;;;;;;;;4346943;32;316386;-86
2023/02/05 06:02:43;;;;;;;7.80;4.70;;;;;;;;;;4357175;32;316360;-86
2023/02/05 06:05:10;;;;;;;4.30;3.53;;;;;;;;;;4346012;32;347760;-86
2023/02/05 06:07:37;;;;;;;6.37;3.73;;;;;;;;;;4356484;32;315682;-86
2023/02/05 06:10:04;;;;;;;3.30;2.97;;;;;;;;;;4355531;32;315614;-86
2023/02/05 06:12:31;;;;;;;4.30;3.27;;;;;;;;;;4345704;32;316504;-87
2023/02/05 06:14:59;;;;;;;8.40;5.10;;;;;;;;;;4356401;32;331298;-86
2023/02/05 06:17:26;;;;;;;6.23;3.30;;;;;;;;;;4346011;32;316419;-86
2023/02/05 06:19:53;;;;;;;5.20;3.10;;;;;;;;;;4355671;32;316363;-86
2023/02/05 06:22:20;;;;;;;5.87;4.10;;;;;;;;;;4346316;32;316721;-87
2023/02/05 06:24:47;;;;;;;3.67;3.23;;;;;;;;;;4356474;32;337608;-87
2023/02/05 06:27:14;;;;;;;5.50;4.13;;;;;;;;;;4347381;32;315404;-86
2023/02/05 06:29:40;;;;;;;7.77;4.43;;;;;;;;;;4356831;32;316415;-86
2023/02/05 06:32:09;;;;;;;4.27;3.27;;;;;;;;;;4352700;32;316438;-86
2023/02/05 06:34:36;;;;;;;7.90;4.77;;;;;;;;;;4357539;32;316528;-86
2023/02/05 06:37:03;;;;;;;5.90;5.07;;;;;;;;;;4357871;32;316812;-86
2023/02/05 06:39:30;;;;;;;5.90;4.90;;;;;;;;;;4348015;32;316501;-87
2023/02/05 06:41:56;;;;;;;7.63;3.90;;;;;;;;;;4356184;32;315549;-86
2023/02/05 06:44:23;;;;;;;5.33;3.23;;;;;;;;;;4345697;32;315495;-86
2023/02/05 06:46:50;;;;;;;14.50;4.63;;;;;;;;;;4355814;32;316320;-87
2023/02/05 06:49:19;;;;;;;6.80;4.87;;;;;;;;;;4347468;32;317575;-86
2023/02/05 06:51:45;;;;;;;5.97;3.87;;;;;;;;;;4357265;32;316394;-87
2023/02/05 06:54:12;;;;;;;5.57;3.43;;;;;;;;;;4345764;32;316371;-85
2023/02/05 06:56:39;;;;;;;9.53;5.87;;;;;;;;;;4355061;32;316438;-86
2023/02/05 06:59:06;;;;;;;11.93;7.07;;;;;;;;;;4356158;32;316497;-86
2023/02/05 07:01:33;;;;;;;8.87;5.77;;;;;;;;;;4347048;32;317347;-86
2023/02/05 07:03:59;;;;;;;5.10;3.80;;;;;;;;;;4356465;32;316283;-86
2023/02/05 07:06:28;;;;;;;4.53;3.70;;;;;;;;;;4348834;32;316295;-86
2023/02/05 07:08:55;;;;;;;8.03;5.30;;;;;;;;;;4359347;32;316422;-86
2023/02/05 07:11:23;;;;;;;4.77;4.27;;;;;;;;;;4349755;32;316531;-86
2023/02/05 07:13:49;;;;;;;5.93;3.40;;;;;;;;;;4359030;32;316184;-86
2023/02/05 07:16:16;;;;;;;8.90;5.10;;;;;;;;;;4348666;32;316628;-86
2023/02/05 07:18:43;;;;;;;5.90;5.30;;;;;;;;;;4358626;32;339183;-86
2023/02/05 07:21:14;;;;;;;8.60;5.60;;;;;;;;;;4349275;32;316415;-86
2023/02/05 07:23:42;;;;;;;4.03;3.00;;;;;;;;;;4358410;32;316499;-85
2023/02/05 07:26:11;;;;;;;14.10;10.30;;;;;;;;;;4348332;32;316438;-87
2023/02/05 07:28:38;;;;;;;13.03;8.50;;;;;;;;;;4358476;32;318359;-86
2023/02/05 07:31:06;;;;;;;7.87;5.20;;;;;;;;;;4358350;32;317953;-87
2023/02/05 07:33:33;;;;;;;18.50;12.87;;;;;;;;;;4345251;32;415536;-86
2023/02/05 07:36:03;;;;;;;5.30;4.07;;;;;;;;;;4358383;32;318673;-87
2023/02/05 07:38:29;;;;;;;5.47;3.97;;;;;;;;;;4348645;32;316179;-87
2023/02/05 07:40:58;;;;;;;6.03;3.80;;;;;;;;;;4358005;32;315443;-87
2023/02/05 07:43:24;;;;;;;4.87;3.70;;;;;;;;;;4348732;32;316506;-87
2023/02/05 07:45:56;;;;;;;4.23;3.30;;;;;;;;;;4358897;32;316242;-87
2023/02/05 07:48:23;;;;;;;6.00;5.20;;;;;;;;;;4350192;32;316417;-88
2023/02/05 07:50:50;;;;;;;5.43;3.93;;;;;;;;;;4360437;32;316109;-87
2023/02/05 07:53:16;;;;;;;57.83;29.53;;;;;;;;;;4348842;32;316430;-87
2023/02/05 07:55:43;;;;;;;9.57;6.13;;;;;;;;;;4358723;32;317869;-86
2023/02/05 07:58:12;;;;;;;22.73;14.37;;;;;;;;;;4351151;32;346495;-87
2023/02/05 08:00:38;;;;;;;15.03;9.17;;;;;;;;;;4361426;32;317684;-87
2023/02/05 08:03:05;;;;;;;10.17;5.63;;;;;;;;;;4360761;32;317301;-86
2023/02/05 08:05:33;;;;;;;7.00;4.77;;;;;;;;;;4346869;32;418868;-87
2023/02/05 08:07:59;;;;;;;18.37;10.70;;;;;;;;;;4359498;32;315638;-88
2023/02/05 08:10:26;;;;;;;18.03;9.00;;;;;;;;;;4349448;32;334333;-88
2023/02/05 08:12:53;;;;;;;14.20;8.70;;;;;;;;;;4358874;32;316540;-87
2023/02/05 08:15:21;;;;;;;9.80;6.67;;;;;;;;;;4348374;32;317817;-87
2023/02/05 08:17:48;;;;;;;21.07;13.07;;;;;;;;;;4357924;32;315556;-87
2023/02/05 08:20:15;;;;;;;6.80;5.13;;;;;;;;;;4348448;32;317719;-87
2023/02/05 08:22:44;;;;;;;9.33;6.10;;;;;;;;;;4358700;32;316392;-89
2023/02/05 08:25:13;;;;;;;8.57;4.83;;;;;;;;;;4347671;32;316306;-87
2023/02/05 08:27:42;;;;;;;56.23;25.73;;;;;;;;;;4357547;32;316448;-86
2023/02/05 08:30:14;;;;;;;62.23;26.73;;;;;;;;;;4347678;32;318324;-87
2023/02/05 08:32:46;;;;;;;51.73;24.77;;;;;;;;;;4357061;32;317926;-87
2023/02/05 08:35:13;;;;;;;64.17;31.43;;;;;;;;;;4347870;32;317611;-86
2023/02/05 08:37:40;;;;;;;59.00;33.30;;;;;;;;;;4358122;32;317550;-86
2023/02/05 08:40:07;;;;;;;31.07;19.23;;;;;;;;;;4357074;32;318375;-87
2023/02/05 08:42:35;;;;;;;29.67;16.07;;;;;;;;;;4344294;32;417712;-87
2023/02/05 08:45:02;;;;;;;23.03;12.80;;;;;;;;;;4358007;32;318501;-87
2023/02/05 08:47:29;;;;;;;32.70;15.63;;;;;;;;;;4348212;32;318450;-86
2023/02/05 08:49:57;;;;;;;37.83;20.70;;;;;;;;;;4357912;32;318497;-86
2023/02/05 08:52:27;;;;;;;13.87;8.53;;;;;;;;;;4347304;32;318387;-86
2023/02/05 08:54:54;;;;;;;17.93;8.77;;;;;;;;;;4357633;32;317237;-86
2023/02/05 08:57:21;;;;;;;20.37;12.97;;;;;;;;;;4347603;32;316878;-86
2023/02/05 08:59:48;;;;;;;24.67;11.80;;;;;;;;;;4356773;32;317642;-86
2023/02/05 09:02:15;;;;;;;18.93;13.20;;;;;;;;;;4347845;32;318211;-86
2023/02/05 09:04:42;;;;;;;10.80;8.70;;;;;;;;;;4357873;32;318311;-86
2023/02/05 09:07:11;;;;;;;18.43;12.87;;;;;;;;;;4346559;32;317573;-86
2023/02/05 09:09:37;;;;;;;18.87;9.97;;;;;;;;;;4356639;32;318473;-87
2023/02/05 09:12:05;;;;;;;14.90;8.47;;;;;;;;;;4356511;32;317372;-86
2023/02/05 09:14:35;;;;;;;17.87;10.67;;;;;;;;;;4346641;32;317746;-86
2023/02/05 09:17:02;;;;;;;37.53;21.53;;;;;;;;;;4356020;32;318624;-86
2023/02/05 09:19:29;;;;;;;11.27;7.47;;;;;;;;;;4347802;32;318543;-86
2023/02/05 09:21:56;;;;;;;17.33;10.03;;;;;;;;;;4356006;32;337389;-86
2023/02/05 09:24:24;;;;;;;15.67;10.20;;;;;;;;;;4347735;32;318893;-87
2023/02/05 09:26:51;;;;;;;17.37;10.43;;;;;;;;;;4355141;32;351401;-87
2023/02/05 09:29:18;;;;;;;14.17;9.43;;;;;;;;;;4345123;32;353310;-86
2023/02/05 09:31:45;;;;;;;14.83;7.80;;;;;;;;;;4358237;32;317323;-86
2023/02/05 09:34:13;;;;;;;15.73;10.70;;;;;;;;;;4348215;32;316687;-86
2023/02/05 09:36:40;;;;;;;23.37;14.77;;;;;;;;;;4357397;32;318603;-87
2023/02/05 09:39:07;;;;;;;9.97;7.17;;;;;;;;;;4358034;32;318414;-86
2023/02/05 09:41:44;;;;;;;17.90;9.37;;;;;;;;;;4345645;32;414969;-86
2023/02/05 09:44:18;;;;;;;11.50;7.20;;;;;;;;;;4339920;32;316888;-86
2023/02/05 09:46:53;;;;;;;16.47;10.80;;;;;;;;;;4366600;32;317244;-86
2023/02/05 09:49:27;;;;;;;19.23;11.30;;;;;;;;;;4347769;32;318349;-86
2023/02/05 09:52:00;;;;;;;17.57;11.00;;;;;;;;;;4358049;32;318552;-86
2023/02/05 09:54:31;;;;;;;15.47;9.20;;;;;;;;;;4347371;32;318575;-86
2023/02/05 09:57:04;;;;;;;19.43;10.90;;;;;;;;;;4356939;32;316596;-86
2023/02/05 09:59:32;;;;;;;29.77;16.97;;;;;;;;;;4347476;32;317747;-86
2023/02/05 10:02:00;;;;;;;23.20;13.33;;;;;;;;;;4355777;32;355827;-87
2023/02/05 10:04:27;;;;;;;16.30;10.67;;;;;;;;;;4344908;32;358023;-86
2023/02/05 10:07:26;;;;;;;12.13;8.43;;;;;;;;;;4355645;32;318448;-87
2023/02/05 10:10:10;;;;;;;14.57;10.93;;;;;;;;;;4325552;32;417732;-86
2023/02/05 10:13:03;;;;;;;14.97;9.60;;;;;;;;;;4344106;32;418487;-86
2023/02/05 10:15:48;;;;;;;16.97;8.97;;;;;;;;;;4346685;32;338829;-86
2023/02/05 10:18:26;;;;;;;17.67;9.90;;;;;;;;;;4344815;32;351639;-86
2023/02/05 10:21:04;;;;;;;13.57;10.07;;;;;;;;;;4357550;32;316855;-86
2023/02/05 10:23:48;;;;;;;23.20;13.90;;;;;;;;;;4346075;32;318418;-86
2023/02/05 10:26:17;;;;;;;16.63;10.27;;;;;;;;;;4346406;32;323126;-86
2023/02/05 10:29:09;;;;;;;14.33;9.27;;;;;;;;;;4355769;32;318436;-86
2023/02/05 10:31:42;;;;;;;15.80;10.80;;;;;;;;;;4343100;32;417450;-86
2023/02/05 10:34:22;;;;;;;14.13;9.40;;;;;;;;;;4346793;32;317786;-86
2023/02/05 10:36:51;;;;;;;12.27;8.03;;;;;;;;;;4356623;32;317007;-86
2023/02/05 10:39:20;;;;;;;18.77;10.43;;;;;;;;;;4345953;32;320252;-86
2023/02/05 10:41:52;;;;;;;15.97;7.50;;;;;;;;;;4358552;32;318179;-86
2023/02/05 10:44:26;;;;;;;21.53;9.70;;;;;;;;;;4348889;32;317232;-86
2023/02/05 10:46:57;;;;;;;12.83;8.87;;;;;;;;;;4359752;32;317534;-86
2023/02/05 10:49:31;;;;;;;15.27;9.07;;;;;;;;;;4350004;32;316524;-86
2023/02/05 10:51:58;;;;;;;16.07;10.67;;;;;;;;;;4359005;32;317510;-86
2023/02/05 10:54:28;;;;;;;20.13;11.57;;;;;;;;;;4349973;32;318334;-85
2023/02/05 10:56:57;;;;;;;29.40;15.10;;;;;;;;;;4358329;32;336540;-86
2023/02/05 10:59:28;;;;;;;31.37;17.63;;;;;;;;;;4349076;32;318558;-87
2023/02/05 11:01:57;;;;;;;38.33;18.23;;;;;;;;;;4359025;32;318428;-86
2023/02/05 11:04:33;;;;;;;20.57;13.07;;;;;;;;;;4350267;32;318257;-87
2023/02/05 11:07:04;;;;;;;15.03;10.10;;;;;;;;;;4359466;32;317634;-87
2023/02/05 11:09:34;;;;;;;17.23;10.47;;;;;;;;;;4348567;32;330248;-87
2023/02/05 11:12:05;;;;;;;12.00;8.50;;;;;;;;;;4359529;32;318281;-86
2023/02/05 11:14:36;;;;;;;12.50;8.37;;;;;;;;;;4349587;32;322930;-87
2023/02/05 11:17:08;;;;;;;11.87;6.97;;;;;;;;;;4359420;32;317612;-86
2023/02/05 11:19:36;;;;;;;15.03;8.87;;;;;;;;;;4345932;32;419209;-87
2023/02/05 11:22:04;;;;;;;15.53;9.77;;;;;;;;;;4358564;32;316673;-86
2023/02/05 11:24:33;;;;;;;11.77;7.27;;;;;;;;;;4350021;32;317231;-86
2023/02/05 11:27:27;;;;;;;19.70;11.03;;;;;;;;;;4360246;32;317345;-87
2023/02/05 11:29:55;;;;;;;11.00;7.70;;;;;;;;;;4349446;32;418895;-87
2023/02/05 11:32:34;;;;;;;11.37;7.50;;;;;;;;;;4365933;32;315967;-86
2023/02/05 11:35:16;;;;;;;10.23;7.07;;;;;;;;;;4368516;32;316584;-86
2023/02/05 11:37:45;;;;;;;21.33;7.73;;;;;;;;;;4347841;32;417945;-86
2023/02/05 11:40:20;;;;;;;8.00;6.03;;;;;;;;;;4353276;32;317260;-86
2023/02/05 11:42:53;;;;;;;17.00;8.30;;;;;;;;;;4364262;32;315282;-86
2023/02/05 11:45:24;;;;;;;17.93;9.60;;;;;;;;;;4351588;32;316540;-86
2023/02/05 11:47:51;;;;;;;7.97;6.03;;;;;;;;;;4358195;32;317344;-86
2023/02/05 11:50:24;;;;;;;20.83;11.00;;;;;;;;;;4347873;32;316104;-86
2023/02/05 11:52:52;;;;;;;11.00;6.57;;;;;;;;;;4359079;32;318465;-86
2023/02/05 11:55:30;;;;;;;9.97;6.63;;;;;;;;;;4348961;32;316908;-85
2023/02/05 11:58:00;;;;;;;8.03;5.70;;;;;;;;;;4359208;32;316325;-86
2023/02/05 12:00:29;;;;;;;21.13;11.40;;;;;;;;;;4348994;32;315550;-85
2023/02/05 12:03:16;;;;;;;13.60;6.80;;;;;;;;;;4358163;32;317517;-86
2023/02/05 12:05:50;;;;;;;6.63;4.70;;;;;;;;;;4345596;32;416833;-85
2023/02/05 12:08:27;;;;;;;8.80;4.93;;;;;;;;;;4348071;32;317033;-84
2023/02/05 12:11:02;;;;;;;6.57;5.23;;;;;;;;;;4358359;32;315477;-85
2023/02/05 12:13:43;;;;;;;8.83;4.23;;;;;;;;;;4348508;32;315523;-85
2023/02/05 12:16:18;;;;;;;10.80;6.47;;;;;;;;;;4348484;32;316271;-84
2023/02/05 12:18:55;;;;;;;8.20;4.77;;;;;;;;;;4358035;32;317612;-85
2023/02/05 12:21:30;;;;;;;9.13;5.63;;;;;;;;;;4347478;32;316550;-85
2023/02/05 12:24:18;;;;;;;11.73;6.93;;;;;;;;;;4358454;32;316187;-85
2023/02/05 12:26:49;;;;;;;24.97;13.43;;;;;;;;;;4345293;32;417188;-85
2023/02/05 12:29:37;;;;;;;19.80;11.10;;;;;;;;;;4347742;32;318553;-85
2023/02/05 12:32:14;;;;;;;7.57;5.67;;;;;;;;;;4357839;32;317517;-85
2023/02/05 12:34:57;;;;;;;11.13;6.93;;;;;;;;;;4345382;32;416435;-85
2023/02/05 12:37:34;;;;;;;11.63;7.23;;;;;;;;;;4347279;32;317294;-85
2023/02/05 12:40:16;;;;;;;14.27;8.63;;;;;;;;;;4358452;32;316488;-82
2023/02/05 12:42:54;;;;;;;15.53;5.70;;;;;;;;;;4344624;32;417555;-84
2023/02/05 12:45:39;;;;;;;9.37;5.63;;;;;;;;;;4346792;32;317277;-85
2023/02/05 12:48:22;;;;;;;10.17;6.57;;;;;;;;;;4357556;32;316052;-85
2023/02/05 12:51:09;;;;;;;16.53;9.37;;;;;;;;;;4344276;32;417422;-85
2023/02/05 12:53:51;;;;;;;47.00;23.37;;;;;;;;;;4329898;32;417180;-85
2023/02/05 12:56:43;;;;;;;24.50;13.83;;;;;;;;;;4331433;32;318469;-85
2023/02/05 12:59:16;;;;;;;14.77;10.60;;;;;;;;;;4332914;32;318205;-85
2023/02/05 13:01:50;;;;;;;24.13;12.07;;;;;;;;;;4341911;32;318439;-85
2023/02/05 13:04:26;;;;;;;20.23;12.00;;;;;;;;;;4332396;32;318923;-85
2023/02/05 13:06:59;;;;;;;49.53;24.13;;;;;;;;;;4342375;32;317571;-85
2023/02/05 13:09:34;;;;;;;19.47;12.70;;;;;;;;;;4332584;32;318352;-85
2023/02/05 13:12:05;;;;;;;26.93;16.07;;;;;;;;;;4340811;32;337220;-85
2023/02/05 13:14:37;;;;;;;22.13;13.47;;;;;;;;;;4331422;32;351844;-85
2023/02/05 13:17:11;;;;;;;22.27;12.47;;;;;;;;;;4342497;32;317453;-85
2023/02/05 13:19:42;;;;;;;25.67;15.47;;;;;;;;;;4328719;32;417836;-85
2023/02/05 13:30:43;;;;;;;13.13;8.80;;;;;;;;;;4346711;32;387574;-85
2023/02/05 13:33:10;;;;;;;13.93;10.00;;;;;;;;;;4349077;32;315335;-85
2023/02/05 13:35:44;;;;;;;15.43;9.90;;;;;;;;;;4358599;32;317321;-85
2023/02/05 13:38:44;;;;;;;15.50;7.57;;;;;;;;;;4347642;32;315208;-85
2023/02/05 13:41:36;;;;;;;16.00;9.40;;;;;;;;;;4348412;32;315308;-85
2023/02/05 13:44:20;;;;;;;32.30;10.53;;;;;;;;;;4342480;32;316618;-86
2023/02/05 13:47:18;;;;;;;27.30;14.87;;;;;;;;;;4329427;32;417935;-85
2023/02/05 13:50:22;;;;;;;29.10;16.90;;;;;;;;;;4329184;32;418523;-85
2023/02/05 13:53:19;;;;;;;24.30;12.57;;;;;;;;;;4328112;32;418615;-84
2023/02/05 13:56:10;;;;;;;24.67;14.40;;;;;;;;;;4328635;32;421696;-85
2023/02/05 13:58:41;;;;;;;48.10;23.50;;;;;;;;;;4327829;32;417222;-85
2023/02/05 14:01:17;;;;;;;27.03;14.70;;;;;;;;;;4323486;32;317541;-84
2023/02/05 14:03:55;;;;;;;24.73;14.93;;;;;;;;;;4341684;32;317671;-84
2023/02/05 14:06:27;;;;;;;35.43;17.87;;;;;;;;;;4331660;32;317686;-84
2023/02/05 14:09:01;;;;;;;36.63;18.93;;;;;;;;;;4340674;32;318485;-84
2023/02/05 14:11:29;;;;;;;18.63;11.20;;;;;;;;;;4330418;32;318406;-84
2023/02/05 14:14:23;;;;;;;30.83;15.57;;;;;;;;;;4340390;32;317500;-84
2023/02/05 14:16:49;;;;;;;17.60;9.87;;;;;;;;;;4329008;32;418595;-84
2023/02/05 14:19:20;;;;;;;26.97;14.17;;;;;;;;;;4331526;32;317572;-85
2023/02/05 14:22:11;;;;;;;40.47;17.07;;;;;;;;;;4341570;33;318490;-85
2023/02/05 14:24:45;;;;;;;39.77;17.20;;;;;;;;;;4329213;33;418554;-85
2023/02/05 14:27:48;;;;;;;29.63;15.67;;;;;;;;;;4331916;33;318718;-85
2023/02/05 14:30:47;;;;;;;26.50;14.37;;;;;;;;;;4332108;33;317551;-85
2023/02/05 14:33:30;;;;;;;24.70;12.53;;;;;;;;;;4330556;32;318267;-85
2023/02/05 14:35:58;;;;;;;17.50;9.07;;;;;;;;;;4340142;33;318323;-85
2023/02/05 14:38:28;;;;;;;17.90;8.37;;;;;;;;;;4330494;32;317399;-85
2023/02/05 14:41:06;;;;;;;13.90;8.90;;;;;;;;;;4341497;33;317331;-85
2023/02/05 14:43:36;;;;;;;10.40;7.60;;;;;;;;;;4331995;32;317283;-85
2023/02/05 14:46:06;;;;;;;19.47;10.57;;;;;;;;;;4340002;33;327713;-85
2023/02/05 14:48:39;;;;;;;20.07;11.10;;;;;;;;;;4328373;32;394836;-86
2023/02/05 14:51:09;;;;;;;13.43;8.67;;;;;;;;;;4340413;33;317516;-86
2023/02/05 14:53:38;;;;;;;20.40;10.27;;;;;;;;;;4326874;32;416917;-85
2023/02/05 14:56:07;;;;;;;19.40;9.10;;;;;;;;;;4339948;33;317655;-86
2023/02/05 14:58:37;;;;;;;19.77;11.23;;;;;;;;;;4328733;32;416944;-86